Sa Cabaneta, Spain

11:57 AM CET on February 08, 2016 (GMT +0100)
Sa Cabaneta | | Change Station
CLOSE
Current Station
Personal Weather Station
Location: Marratx, ILLES BALEARS
Elevation: 479 ft
Nearby Weather Stations

Elev 479 ft 39.62 °N, 2.76 °E | Updated 15 minutes ago

Partly Cloudy
Partly Cloudy
59.8 °F
Feels Like 59.8 °F
N
5.0
Wind Variable Wind from South
Gusts 10.0 mph

Today
High -- | Low -- °F
--% Chance of Precip.
Yesterday
High -- | Low -- °F
Precip. -- in
Pressure 30.24 in
Visibility 6.2 miles
Clouds Few 2200 ft
Dew Point 45 °F
Humidity 58%
Rainfall 0.00 in
Snow Depth Not available.
7:50 AM 6:16 PM
Waning Crescent, 0% visible
METAR LEPA 081030Z 24008KT 210V270 9999 FEW022 16/08 Q1024 NOSIG
Pressure 30.24 in
Visibility 6.2 miles
Clouds Few 2200 ft
Dew Point 45 °F
Humidity 58%
Rainfall 0.00 in
Snow Depth Not available.
7:50 AM 6:16 PM
Waning Crescent, 0% visible
METAR LEPA 081030Z 24008KT 210V270 9999 FEW022 16/08 Q1024 NOSIG

10-Day Weather Forecast

Almanac

Astronomy

Feb. 08, 2016 Rise Set
Actual Time
Civil Twilight
Nautical Twilight
Astronomical Twilight
Moon
Length of Visible Light
Length of Day
Tomorrow will be .
, % of the Moon is Illuminated

Today's Extremes

Country Highs Country Lows

Community

WunderPhotos

Upload Photos

1,891,420 photos uploaded!

WunderBlog® & News

Nearby

Air Quality

  Air Quality AQ Index Pollutant
Not available.

Snow Depth

Station Depth Elevation

Earthquake Activity

City Distance Mag. Time & Date
Minimum magnitude displayed is 2.5.

Coastal Water Temperatures

Place Temperature

Stations

Nearby Weather Stations

Station Location Temp. Windchill Dew Point Humidity Wind Precip. Elev Updated Type